createdAt,value
2022-08-20T00:00:14.965Z,18.75
2022-08-20T00:02:48.369Z,18.73
2022-08-20T00:05:21.387Z,18.67
2022-08-20T00:07:50.283Z,18.68
2022-08-20T00:10:19.279Z,18.72
2022-08-20T00:12:49.700Z,18.69
2022-08-20T00:15:22.286Z,18.70
2022-08-20T00:17:54.703Z,18.72
2022-08-20T00:20:26.898Z,18.74
2022-08-20T00:22:55.749Z,18.76
2022-08-20T00:25:24.632Z,18.77
2022-08-20T00:27:53.786Z,18.82
2022-08-20T00:30:23.580Z,18.80
2022-08-20T00:32:56.115Z,18.82
2022-08-20T00:35:27.622Z,18.83
2022-08-20T00:38:00.558Z,18.87
2022-08-20T00:40:34.851Z,18.87
2022-08-20T00:43:06.836Z,18.87
2022-08-20T00:45:37.114Z,18.86
2022-08-20T00:48:06.809Z,18.87
2022-08-20T00:50:39.430Z,18.89
2022-08-20T00:53:08.910Z,18.93
2022-08-20T00:55:38.435Z,18.94
2022-08-20T00:58:09.797Z,18.93
2022-08-20T01:00:43.190Z,18.97
2022-08-20T01:03:16.577Z,18.99
2022-08-20T01:05:48.859Z,18.97
2022-08-20T01:08:19.570Z,18.96
2022-08-20T01:10:50.692Z,18.94
2022-08-20T01:13:23.625Z,18.92
2022-08-20T01:15:56.383Z,18.89
2022-08-20T01:18:28.878Z,18.91
2022-08-20T01:21:00.418Z,18.91
2022-08-20T01:23:36.547Z,18.87
2022-08-20T01:26:10.031Z,18.88
2022-08-20T01:28:41.490Z,18.87
2022-08-20T01:31:12.523Z,18.90
2022-08-20T01:33:42.442Z,18.92
2022-08-20T01:36:13.291Z,18.91
2022-08-20T01:38:53.977Z,18.95
2022-08-20T01:41:36.335Z,18.96
2022-08-20T01:44:05.943Z,18.97
2022-08-20T01:46:43.927Z,18.98
2022-08-20T01:49:22.869Z,18.96
2022-08-20T01:51:54.623Z,18.98
2022-08-20T01:54:24.559Z,18.94
2022-08-20T01:57:03.718Z,18.93
2022-08-20T01:59:32.114Z,18.92
2022-08-20T02:02:02.951Z,18.92
2022-08-20T02:04:31.865Z,18.90
2022-08-20T02:07:04.227Z,18.89
2022-08-20T02:09:37.895Z,18.91
2022-08-20T02:12:09.971Z,18.89
2022-08-20T02:14:42.693Z,18.90
2022-08-20T02:17:12.756Z,18.87
2022-08-20T02:19:45.514Z,18.83
2022-08-20T02:22:21.773Z,18.84
2022-08-20T02:24:51.873Z,18.85
2022-08-20T02:27:24.264Z,18.85
2022-08-20T02:29:54.372Z,18.86
2022-08-20T02:32:34.026Z,18.88
2022-08-20T02:35:03.798Z,18.88
2022-08-20T02:37:33.291Z,18.90
2022-08-20T02:40:01.858Z,18.90
2022-08-20T02:42:32.172Z,18.93
2022-08-20T02:45:00.626Z,18.92
2022-08-20T02:47:29.770Z,18.89
2022-08-20T02:49:59.503Z,18.89
2022-08-20T02:52:29.300Z,18.90
2022-08-20T02:54:57.592Z,18.89
2022-08-20T02:57:26.312Z,18.88
2022-08-20T02:59:56.971Z,18.86
2022-08-20T03:02:25.439Z,18.85
2022-08-20T03:04:54.207Z,18.85
2022-08-20T03:07:22.656Z,18.83
2022-08-20T03:09:51.687Z,18.85
2022-08-20T03:12:20.603Z,18.84
2022-08-20T03:14:48.894Z,18.83
2022-08-20T03:17:19.298Z,18.86
2022-08-20T03:19:47.615Z,18.85
2022-08-20T03:22:16.708Z,18.86
2022-08-20T03:24:45.399Z,18.86
2022-08-20T03:27:14.706Z,18.83
2022-08-20T03:29:43.099Z,18.84
2022-08-20T03:32:11.902Z,18.83
2022-08-20T03:34:41.575Z,18.83
2022-08-20T03:37:12.139Z,18.83
2022-08-20T03:39:41.130Z,18.85
2022-08-20T03:42:10.446Z,18.88
2022-08-20T03:44:38.831Z,18.87
2022-08-20T03:47:09.691Z,18.90
2022-08-20T03:49:38.422Z,18.91
2022-08-20T03:52:08.188Z,18.93
2022-08-20T03:54:37.474Z,18.94
2022-08-20T03:57:12.859Z,18.93
2022-08-20T03:59:41.784Z,18.95
2022-08-20T04:02:11.440Z,18.97
2022-08-20T04:04:41.018Z,18.97
2022-08-20T04:07:16.179Z,18.96
2022-08-20T04:09:45.451Z,18.98
2022-08-20T04:12:14.315Z,18.97
2022-08-20T04:14:43.558Z,18.97
2022-08-20T04:17:14.140Z,18.96
2022-08-20T04:19:44.716Z,18.97
2022-08-20T04:22:15.072Z,18.95
2022-08-20T04:24:44.528Z,18.95
2022-08-20T04:27:14.728Z,18.98
2022-08-20T04:29:44.543Z,18.98
2022-08-20T04:32:14.338Z,18.98
2022-08-20T04:34:47.282Z,19.00
2022-08-20T04:37:21.580Z,18.99
2022-08-20T04:40:10.046Z,19.00
2022-08-20T04:42:39.194Z,19.02
2022-08-20T04:45:09.420Z,19.05
2022-08-20T04:47:38.371Z,19.05
2022-08-20T04:50:10.647Z,19.08
2022-08-20T04:52:40.582Z,19.07
2022-08-20T04:55:11.273Z,19.12
2022-08-20T04:57:39.685Z,19.10
2022-08-20T05:00:11.440Z,19.11
2022-08-20T05:02:39.915Z,19.11
2022-08-20T05:05:09.240Z,19.14
2022-08-20T05:07:43.383Z,19.17
2022-08-20T05:10:15.855Z,19.17
2022-08-20T05:12:55.630Z,19.18
2022-08-20T05:15:26.840Z,19.19
2022-08-20T05:17:57.391Z,19.22
2022-08-20T05:20:27.329Z,19.24
2022-08-20T05:22:57.723Z,19.23
2022-08-20T05:25:29.350Z,19.23
2022-08-20T05:28:01.060Z,19.22
2022-08-20T05:30:33.318Z,19.25
2022-08-20T05:33:05.776Z,19.26
2022-08-20T05:35:39.181Z,19.29
2022-08-20T05:38:12.887Z,19.31
2022-08-20T05:40:43.140Z,19.27
2022-08-20T05:43:12.295Z,19.28
2022-08-20T05:45:44.771Z,19.29
2022-08-20T05:48:15.702Z,19.31
2022-08-20T05:50:46.706Z,19.34
2022-08-20T05:53:17.657Z,19.36
2022-08-20T05:55:49.404Z,19.37
2022-08-20T05:58:20.748Z,19.37
2022-08-20T06:00:49.716Z,19.37
2022-08-20T06:03:36.305Z,19.40
2022-08-20T06:06:05.696Z,19.43
2022-08-20T06:08:55.840Z,19.41
2022-08-20T06:11:24.169Z,19.43
2022-08-20T06:13:53.191Z,19.49
2022-08-20T06:16:21.566Z,19.49
2022-08-20T06:18:50.711Z,19.48
2022-08-20T06:21:19.666Z,19.48
2022-08-20T06:23:57.276Z,19.52
2022-08-20T06:26:30.879Z,19.56
2022-08-20T06:29:00.301Z,19.58
2022-08-20T06:31:29.156Z,19.58
2022-08-20T06:33:57.818Z,19.60
2022-08-20T06:36:27.902Z,19.63
2022-08-20T06:38:58.308Z,19.66
2022-08-20T06:41:35.806Z,19.66
2022-08-20T06:44:07.588Z,19.69
2022-08-20T06:46:36.400Z,19.72
2022-08-20T06:49:06.373Z,19.72
2022-08-20T06:51:35.626Z,19.76
2022-08-20T06:54:04.135Z,19.77
2022-08-20T06:56:33.025Z,19.80
2022-08-20T06:59:02.264Z,19.84
2022-08-20T07:01:32.316Z,19.86
2022-08-20T07:04:00.661Z,19.83
2022-08-20T07:06:29.621Z,19.82
2022-08-20T07:08:58.374Z,19.82
2022-08-20T07:11:28.547Z,19.82
2022-08-20T07:13:58.607Z,19.77
2022-08-20T07:16:27.227Z,19.80
2022-08-20T07:18:58.816Z,19.80
2022-08-20T07:21:27.194Z,19.84
2022-08-20T07:23:56.129Z,19.85
2022-08-20T07:26:24.604Z,19.81
2022-08-20T07:28:53.243Z,19.78
2022-08-20T07:31:42.157Z,19.78
2022-08-20T07:34:14.164Z,19.78
2022-08-20T07:36:43.954Z,19.73
2022-08-20T07:39:13.066Z,19.71
2022-08-20T07:41:41.791Z,19.67
2022-08-20T07:44:10.160Z,19.65
2022-08-20T07:46:39.211Z,19.67
2022-08-20T07:49:10.041Z,19.64
2022-08-20T07:51:40.766Z,19.65
2022-08-20T07:54:09.114Z,19.65
2022-08-20T07:56:37.839Z,19.63
2022-08-20T07:59:06.336Z,19.58
2022-08-20T08:01:35.631Z,19.63
2022-08-20T08:04:04.910Z,19.55
2022-08-20T08:06:34.183Z,19.55
2022-08-20T08:09:10.261Z,19.55
2022-08-20T08:11:47.277Z,19.59
2022-08-20T08:14:18.925Z,19.59
2022-08-20T08:16:48.488Z,19.62
2022-08-20T08:19:19.300Z,19.64
2022-08-20T08:21:48.552Z,19.65
2022-08-20T08:24:21.697Z,19.69
2022-08-20T08:26:52.880Z,19.69
2022-08-20T08:29:21.290Z,19.73
2022-08-20T08:31:50.599Z,19.77
2022-08-20T08:34:18.920Z,19.77
2022-08-20T08:36:48.924Z,19.77
2022-08-20T08:39:18.766Z,19.76
2022-08-20T08:41:50.800Z,19.80
2022-08-20T08:44:24.164Z,19.77
2022-08-20T08:46:56.582Z,19.74
2022-08-20T08:49:38.139Z,19.75
2022-08-20T08:52:14.699Z,19.73
2022-08-20T08:54:50.519Z,19.72
2022-08-20T08:57:19.396Z,19.77
2022-08-20T09:00:03.987Z,19.76
2022-08-20T09:02:36.356Z,19.74
2022-08-20T09:05:15.987Z,19.75
2022-08-20T09:07:48.679Z,19.72
2022-08-20T09:10:23.117Z,19.69
2022-08-20T09:12:52.271Z,19.63
2022-08-20T09:15:21.883Z,19.66
2022-08-20T09:17:50.348Z,19.65
2022-08-20T09:20:19.739Z,19.70
2022-08-20T09:22:51.476Z,19.73
2022-08-20T09:25:23.055Z,19.71
2022-08-20T09:27:51.844Z,19.73
2022-08-20T09:30:20.347Z,19.71
2022-08-20T09:32:49.613Z,19.75
2022-08-20T09:35:18.466Z,19.78
2022-08-20T09:37:46.992Z,19.77
2022-08-20T09:40:22.873Z,19.76
2022-08-20T09:42:52.047Z,19.79
2022-08-20T09:45:21.038Z,19.79
2022-08-20T09:47:56.387Z,19.81
2022-08-20T09:50:49.014Z,19.77
2022-08-20T09:53:20.799Z,19.81
2022-08-20T09:55:53.723Z,19.84
2022-08-20T09:58:27.351Z,19.87
2022-08-20T10:00:55.727Z,19.90
2022-08-20T10:03:24.690Z,19.88
2022-08-20T10:05:53.394Z,19.89
2022-08-20T10:08:22.110Z,19.91
2022-08-20T10:10:52.320Z,19.91
2022-08-20T10:13:20.663Z,19.92
2022-08-20T10:15:49.642Z,19.89
2022-08-20T10:18:18.055Z,19.92
2022-08-20T10:20:46.884Z,19.95
2022-08-20T10:23:15.455Z,19.97
2022-08-20T10:25:44.803Z,19.92
2022-08-20T10:28:14.999Z,19.91
2022-08-20T10:30:45.074Z,19.89
2022-08-20T10:33:13.846Z,19.89
2022-08-20T10:35:42.150Z,19.90
2022-08-20T10:38:10.479Z,19.86
2022-08-20T10:40:38.825Z,19.92
2022-08-20T10:43:07.219Z,19.95
2022-08-20T10:45:37.345Z,19.98
2022-08-20T10:48:08.798Z,19.98
2022-08-20T10:50:37.935Z,19.98
2022-08-20T10:53:06.758Z,19.95
2022-08-20T10:55:35.160Z,19.96
2022-08-20T10:58:06.802Z,19.94
2022-08-20T11:00:36.140Z,19.91
2022-08-20T11:03:05.815Z,19.93
2022-08-20T11:05:34.715Z,19.89
2022-08-20T11:08:05.139Z,19.83
2022-08-20T11:10:37.043Z,19.81
2022-08-20T11:13:07.603Z,19.85
2022-08-20T11:15:39.113Z,19.88
2022-08-20T11:18:10.554Z,19.88
2022-08-20T11:20:38.919Z,19.89
2022-08-20T11:23:07.695Z,19.89
2022-08-20T11:25:36.051Z,19.92
2022-08-20T11:28:06.442Z,19.89
2022-08-20T11:30:37.002Z,19.87
2022-08-20T11:33:06.793Z,19.88
2022-08-20T11:35:49.079Z,19.88
2022-08-20T11:38:18.979Z,19.93
2022-08-20T11:40:47.709Z,19.90
2022-08-20T11:43:17.441Z,19.88
2022-08-20T11:45:48.973Z,19.94
2022-08-20T11:48:18.020Z,19.95
2022-08-20T11:50:49.008Z,19.96
2022-08-20T11:53:17.739Z,19.96
2022-08-20T11:55:47.917Z,19.92
2022-08-20T11:58:16.385Z,19.86
2022-08-20T12:00:45.010Z,19.85
2022-08-20T12:03:13.857Z,19.85
2022-08-20T12:05:44.910Z,19.78
2022-08-20T12:08:27.058Z,19.83
2022-08-20T12:10:59.160Z,19.83
2022-08-20T12:13:30.945Z,19.85
2022-08-20T12:16:16.699Z,19.83
2022-08-20T12:18:45.837Z,19.86
2022-08-20T12:21:14.428Z,19.93
2022-08-20T12:23:44.523Z,19.94
2022-08-20T12:26:13.147Z,19.98
2022-08-20T12:28:41.527Z,19.99
2022-08-20T12:31:10.394Z,19.98
2022-08-20T12:33:38.921Z,19.89
2022-08-20T12:36:08.110Z,19.89
2022-08-20T12:38:36.507Z,19.93
2022-08-20T12:41:06.528Z,19.92
2022-08-20T12:43:34.889Z,19.82
2022-08-20T12:46:03.266Z,19.85
2022-08-20T12:48:31.643Z,19.95
2022-08-20T12:51:00.010Z,20.08
2022-08-20T12:53:28.800Z,20.18
2022-08-20T12:55:57.131Z,20.15
2022-08-20T12:58:27.580Z,20.05
2022-08-20T13:00:55.905Z,20.09
2022-08-20T13:03:24.776Z,20.10
2022-08-20T13:05:53.479Z,20.17
2022-08-20T13:08:22.335Z,20.16
2022-08-20T13:10:50.632Z,20.17
2022-08-20T13:13:20.779Z,20.25
2022-08-20T13:15:51.839Z,20.35
2022-08-20T13:18:21.528Z,20.48
2022-08-20T13:20:50.522Z,20.58
2022-08-20T13:23:19.256Z,20.65
2022-08-20T13:25:47.995Z,20.72
2022-08-20T13:28:16.363Z,20.74
2022-08-20T13:30:45.282Z,20.77
2022-08-20T13:33:15.217Z,20.79
2022-08-20T13:35:43.894Z,20.79
2022-08-20T13:38:12.604Z,20.80
2022-08-20T13:40:41.163Z,20.75
2022-08-20T13:43:11.851Z,20.71
2022-08-20T13:45:42.443Z,20.74
2022-08-20T13:48:14.973Z,20.83
2022-08-20T13:50:46.907Z,20.97
2022-08-20T13:53:17.439Z,21.05
2022-08-20T13:55:47.119Z,21.00
2022-08-20T13:58:15.811Z,21.14
2022-08-20T14:00:45.318Z,21.19
2022-08-20T14:03:13.898Z,21.47
2022-08-20T14:05:50.494Z,21.80
2022-08-20T14:08:21.160Z,21.89
2022-08-20T14:10:51.795Z,22.25
2022-08-20T14:13:22.605Z,22.37
2022-08-20T14:15:51.604Z,22.39
2022-08-20T14:18:20.230Z,22.41
2022-08-20T14:20:50.710Z,22.47
2022-08-20T14:23:19.198Z,22.63
2022-08-20T14:25:49.900Z,22.71
2022-08-20T14:28:21.083Z,22.65
2022-08-20T14:30:53.204Z,22.70
2022-08-20T14:33:23.394Z,22.68
2022-08-20T14:35:54.513Z,22.58
2022-08-20T14:38:24.178Z,22.56
2022-08-20T14:40:53.006Z,22.55
2022-08-20T14:43:21.414Z,22.60
2022-08-20T14:45:49.783Z,22.65
2022-08-20T14:48:18.835Z,22.65
2022-08-20T14:50:47.258Z,22.67
2022-08-20T14:53:17.536Z,22.77
2022-08-20T14:55:47.024Z,22.73
2022-08-20T14:58:17.388Z,22.64
2022-08-20T15:00:47.279Z,22.56
2022-08-20T15:03:15.927Z,22.38
2022-08-20T15:05:44.239Z,22.25
2022-08-20T15:08:13.338Z,22.13
2022-08-20T15:10:43.647Z,22.03
2022-08-20T15:16:02.700Z,21.86
2022-08-20T15:18:31.442Z,21.77
2022-08-20T15:20:59.922Z,21.65
2022-08-20T15:23:28.635Z,21.70
2022-08-20T15:25:58.527Z,21.78
2022-08-20T15:28:27.300Z,21.72
2022-08-20T15:30:55.989Z,21.70
2022-08-20T15:33:24.377Z,21.73
2022-08-20T15:35:52.725Z,21.73
2022-08-20T15:38:21.011Z,21.65
2022-08-20T15:40:49.745Z,21.64
2022-08-20T15:43:19.532Z,21.63
2022-08-20T15:45:48.250Z,21.63
2022-08-20T15:48:19.147Z,21.61
2022-08-20T15:51:03.933Z,21.58
2022-08-20T15:53:40.666Z,21.54
2022-08-20T15:56:16.638Z,21.56
2022-08-20T15:58:59.371Z,21.54
2022-08-20T16:01:37.148Z,21.42
2022-08-20T16:04:51.955Z,21.36
2022-08-20T16:07:25.862Z,21.16
2022-08-20T16:10:04.632Z,21.08
2022-08-20T16:12:37.121Z,20.96
2022-08-20T16:15:12.957Z,20.81
2022-08-20T16:17:45.750Z,20.72
2022-08-20T16:20:22.175Z,20.58
2022-08-20T16:22:53.210Z,20.49
2022-08-20T16:25:28.268Z,20.40
2022-08-20T16:28:06.178Z,20.34
2022-08-20T16:30:44.411Z,20.31
2022-08-20T16:33:20.735Z,20.28
2022-08-20T16:35:55.652Z,20.28
2022-08-20T16:38:42.108Z,20.29
2022-08-20T16:41:15.935Z,20.29
2022-08-20T16:43:53.787Z,20.26
2022-08-20T16:46:27.106Z,20.23
2022-08-20T16:48:58.818Z,20.23
2022-08-20T16:51:37.594Z,20.23
2022-08-20T16:54:07.644Z,20.21
2022-08-20T16:56:38.569Z,20.22
2022-08-20T16:59:12.104Z,20.19
2022-08-20T17:02:07.294Z,20.16
2022-08-20T17:04:58.698Z,20.16
2022-08-20T17:07:33.522Z,20.15
2022-08-20T17:10:13.147Z,20.14
2022-08-20T17:12:41.507Z,20.11
2022-08-20T17:15:21.063Z,20.12
2022-08-20T17:17:50.854Z,20.08
2022-08-20T17:20:20.485Z,20.06
2022-08-20T17:22:52.842Z,20.06
2022-08-20T17:25:35.745Z,20.05
2022-08-20T17:28:14.620Z,20.07
2022-08-20T17:30:43.516Z,20.04
2022-08-20T17:33:27.141Z,20.05
2022-08-20T17:35:58.079Z,20.06
2022-08-20T17:38:36.028Z,20.09
2022-08-20T17:41:16.735Z,20.09
2022-08-20T17:43:46.988Z,20.08
2022-08-20T17:46:18.600Z,20.08
2022-08-20T17:48:50.212Z,20.10
2022-08-20T17:51:21.527Z,20.07
2022-08-20T17:53:54.357Z,20.09
2022-08-20T17:56:25.174Z,20.07
2022-08-20T17:58:59.111Z,20.10
2022-08-20T18:01:32.492Z,20.11
2022-08-20T18:04:02.382Z,20.05
2022-08-20T18:06:45.059Z,20.02
2022-08-20T18:09:19.300Z,20.01
2022-08-20T18:11:53.498Z,20.00
2022-08-20T18:14:42.919Z,19.96
2022-08-20T18:17:33.184Z,19.92
2022-08-20T18:20:21.082Z,19.90
2022-08-20T18:22:54.527Z,19.89
2022-08-20T18:25:32.594Z,19.82
2022-08-20T18:28:08.448Z,19.79
2022-08-20T18:30:48.446Z,19.78
2022-08-20T18:33:27.164Z,19.83
2022-08-20T18:36:11.299Z,19.82
2022-08-20T18:38:43.396Z,19.79
2022-08-20T18:41:15.751Z,19.80
2022-08-20T18:43:44.546Z,19.80
2022-08-20T18:46:20.554Z,19.73
2022-08-20T18:48:58.559Z,19.68
2022-08-20T18:51:35.635Z,19.64
2022-08-20T18:54:05.229Z,19.61
2022-08-20T18:56:38.497Z,19.63
2022-08-20T18:59:12.859Z,19.59
2022-08-20T19:01:43.043Z,19.60
2022-08-20T19:04:28.986Z,19.62
2022-08-20T19:07:02.655Z,19.63
2022-08-20T19:09:52.128Z,19.53
2022-08-20T19:12:34.796Z,19.55
2022-08-20T19:15:07.462Z,19.56
2022-08-20T19:20:39.823Z,19.55
2022-08-20T19:23:14.112Z,19.56
2022-08-20T19:25:55.291Z,19.55
2022-08-20T19:28:32.988Z,19.52
2022-08-20T19:31:11.339Z,19.44
2022-08-20T19:33:44.136Z,19.39
2022-08-20T19:36:17.330Z,19.39
2022-08-20T19:38:51.060Z,19.43
2022-08-20T19:41:28.864Z,19.40
2022-08-20T19:44:01.291Z,19.37
2022-08-20T19:46:32.425Z,19.34
2022-08-20T19:49:19.513Z,19.35
2022-08-20T19:51:56.983Z,19.35
2022-08-20T19:54:28.520Z,19.31
2022-08-20T19:56:59.289Z,19.32
2022-08-20T19:59:28.914Z,19.38
2022-08-20T20:02:02.879Z,19.42
2022-08-20T20:04:40.055Z,19.46
2022-08-20T20:07:17.174Z,19.46
2022-08-20T20:09:51.233Z,19.46
2022-08-20T20:12:22.947Z,19.44
2022-08-20T20:14:53.711Z,19.46
2022-08-20T20:17:25.236Z,19.45
2022-08-20T20:19:59.066Z,19.46
2022-08-20T20:22:30.805Z,19.46
2022-08-20T20:25:05.282Z,19.45
2022-08-20T20:27:36.837Z,19.46
2022-08-20T20:30:08.211Z,19.47
2022-08-20T20:32:40.707Z,19.50
2022-08-20T20:35:09.166Z,19.49
2022-08-20T20:37:50.673Z,19.47
2022-08-20T20:40:27.497Z,19.49
2022-08-20T20:43:03.303Z,19.48
2022-08-20T20:45:36.032Z,19.47
2022-08-20T20:48:16.527Z,19.51
2022-08-20T20:50:47.270Z,19.50
2022-08-20T20:53:32.299Z,19.48
2022-08-20T20:56:30.937Z,19.49
2022-08-20T20:59:05.499Z,19.51
2022-08-20T21:01:48.200Z,19.46
2022-08-20T21:04:20.715Z,19.48
2022-08-20T21:06:50.146Z,19.47
2022-08-20T21:09:20.333Z,19.48
2022-08-20T21:11:51.011Z,19.47
2022-08-20T21:14:20.486Z,19.48
2022-08-20T21:16:49.108Z,19.47
2022-08-20T21:19:18.612Z,19.50
2022-08-20T21:21:47.166Z,19.49
2022-08-20T21:24:16.195Z,19.46
2022-08-20T21:26:45.409Z,19.46
2022-08-20T21:29:25.794Z,19.43
2022-08-20T21:31:57.064Z,19.38
2022-08-20T21:34:26.259Z,19.41
2022-08-20T21:36:54.997Z,19.45
2022-08-20T21:39:26.312Z,19.44
2022-08-20T21:41:57.523Z,19.45
2022-08-20T21:44:29.624Z,19.47
2022-08-20T21:46:59.716Z,19.48
2022-08-20T21:49:29.679Z,19.48
2022-08-20T21:51:59.119Z,19.46
2022-08-20T21:54:28.781Z,19.46
2022-08-20T21:57:00.219Z,19.46
2022-08-20T21:59:30.022Z,19.46
2022-08-20T22:01:59.064Z,19.47
2022-08-20T22:04:27.565Z,19.49
2022-08-20T22:06:56.731Z,19.47
2022-08-20T22:09:25.162Z,19.49
2022-08-20T22:11:55.747Z,19.48
2022-08-20T22:14:26.673Z,19.49
2022-08-20T22:16:56.779Z,19.47
2022-08-20T22:19:26.407Z,19.45
2022-08-20T22:21:56.606Z,19.45
2022-08-20T22:24:27.868Z,19.46
2022-08-20T22:26:56.828Z,19.45
2022-08-20T22:29:25.491Z,19.44
2022-08-20T22:31:56.105Z,19.43
2022-08-20T22:34:24.596Z,19.40
2022-08-20T22:36:55.187Z,19.42
2022-08-20T22:39:24.321Z,19.39
2022-08-20T22:41:53.495Z,19.39
2022-08-20T22:44:21.807Z,19.40
2022-08-20T22:46:55.688Z,19.40
2022-08-20T22:49:30.407Z,19.40
2022-08-20T22:51:58.862Z,19.38
2022-08-20T22:54:27.784Z,19.37
2022-08-20T22:56:56.981Z,19.35
2022-08-20T22:59:25.461Z,19.34
2022-08-20T23:01:55.081Z,19.33
2022-08-20T23:04:28.243Z,19.33
2022-08-20T23:06:58.411Z,19.31
2022-08-20T23:09:27.780Z,19.31
2022-08-20T23:11:59.590Z,19.33
2022-08-20T23:14:28.383Z,19.34
2022-08-20T23:17:04.252Z,19.34
2022-08-20T23:19:34.742Z,19.32
2022-08-20T23:22:03.202Z,19.32
2022-08-20T23:24:32.663Z,19.32
2022-08-20T23:27:01.509Z,19.29
2022-08-20T23:29:31.131Z,19.26
2022-08-20T23:31:59.926Z,19.26
2022-08-20T23:34:29.190Z,19.22
2022-08-20T23:37:01.338Z,19.23
2022-08-20T23:39:31.311Z,19.24
2022-08-20T23:42:01.240Z,19.23
2022-08-20T23:44:30.141Z,19.23
2022-08-20T23:47:02.906Z,19.24
2022-08-20T23:49:32.839Z,19.24
2022-08-20T23:52:02.751Z,19.22
2022-08-20T23:54:34.135Z,19.21
2022-08-20T23:57:02.959Z,19.21
2022-08-20T23:59:36.820Z,19.21
